Briefing drone pour Malesherbes

Rechercher une autre localisation

Conditions de vol :


Nous sommes le : Mercredi 23 juin 2021
Il est 02:01 UTC (04:01 LT)

Lever de soleil : 03:24 UTC (05:24 LT)
Coucher de soleil : 20:20 UTC (22:20 LT)

Météo

L'essentiel des conditions de vol

VIGILANCE MÉTÉO FRANCE - Loiret (45)
Vigilance Jaune : Orages
CARTE TEMSI
CARTES DES FRONTS
METAR de LFPM
LFPM 230130Z AUTO 36006KT 7000 OVC009 14/12 Q1018

Date d'émission: 23/06/2021
Heure d'émission: 01:30 UTC
Vent: 360° pour 6 KT (11 km/h)
Visibilité horizontale: 7000 m
Plafond :
- Couvert à 900ft (274m)
Température: 14 °C
Point de rosée: 12 °C
Humidité: 88%
Pression (QNH): 1018 hPa
Prévision 24h pour Melun (20 km)
Vent : 359° pour 4 KT (14 km/h)
Temperature Maxi: 15 °C
Temperature Min: 15 °C
Humidité : 82%
Condition : Couvert



Warning: count(): Parameter must be an array or an object that implements Countable in /homepages/6/d509196549/htdocs/droneoxygene/briefing.php on line 743
WEBCAM POUR MALESHERBES

Réglementation

Voler en sécurité

CARTES AERONAUTIQUE 1/500.000
CARTES VAC (LFPM)
SUP AIP




Chargement des AIP...
NOTAM (MALESHERBES + Terrain à proximité / FIR )




Chargement des NOTAMS...
CONTACT PREFECTURE 45


Avertissement : Les données mises à disposition sont indicatives. Oxygène Drone ne pourra être tenu responsable de dégâts causés aux biens et aux personnes.